Airfield :
LOGIN :

Register | Disclaimer

   EN    FR    IT 

 










Legend :    VFR   Marginal VFR   IFR   Intensive IFR   Very Intensive IFR
Visi :
Ceiling :
>= 8 km
>= 3000ft
5 to 8 km
1000 to 3000 ft
1500m to 5 km
500 to 1000 ft
800 to 1500m
200 to 500 ft
< 800m
< 200 ft
Symbols :   Thunderstorms  Fog  Heavy snow  Heavy precipitations  Wind > 20 kt
SIGMETs :     Misc.  Thunderstorms  Icing  Turbulence  Mountain Waves  Volcanic Ashes







- Airport Elevation : 1363 ft


ETIC - Grafenwohr Army Air Field

CURRENT METAR :
  • 171356Z AUTO 27009KT 9999 FEW047 19/06 A3001 RMK AO2 SLP156 T01860061 $

EXPIRED METARs :
  • 171256Z AUTO 29012G16KT 9999 CLR 19/07 A3002 RMK AO2 SLP159 T01870068 $
  • 171156Z AUTO 29011G17KT 9999 CLR 18/07 A3003 RMK AO2 SLP163 T01770065 10177 20122 58011 $

TAF TAF ETIC
Valid from the 17 at 14:00 until the 18 at 20:00 UTC


1714/1820 28012KT 9999 FEW020 BKN200 QNH3002INS
TEMPO 1714/1717 28012G18KT
BECMG 1717/1718 29008KT 9999 FEW020 SCT250 QNH3004INS
BECMG 1802/1803 VRB06KT 8000 BR FEW250 QNH3020INS
TEMPO 1803/1808 3200 BR TX20/1714Z TN06/1805Z
No reported NOTAMs for that airfield.



MET'MAP, your aeronautical weather chart ! - Copyright ORBIFLY December 2007 - Disclaimer

ORBIFLY MET'MAP TEAM :

Programming & Development : Alexandra Zaïnal
Concept & Development : Baudouin d'Aumeries
Co-Development & Prog : Marc-Olivier Méhu
Technical & hardware support : Manuel Goepfert

Contact : metmap@orbifly.com




SOURCES & CREDITS :

   NOAA